Data for 08/10/2007

Time Sea-Level Adjusted Pressure Absolute Pressure Temperature Relative Humidity Dew Point   
(mb) (inHg) (mb) (inHg) (C) (F) (%) (C) (F)
00:05 1017 30.03 846 24.98 21.1 69.9 30 3.1 37.6
00:10 1017 30.03 846 24.98 21.1 70 30 3.1 37.5
00:15 1017 30.03 846 24.98 21.3 70.3 29 2.8 37
00:20 1017 30.03 846 24.98 21.5 70.8 29 3.1 37.6
00:25 1017 30.03 846 24.98 21.5 70.7 29 3.1 37.6
00:30 1017 30.03 846 24.98 21.4 70.6 30 3.1 37.7
00:35 1017 30.03 846 24.98 21.2 70.2 30 3.4 38
00:40 1017 30.03 846 24.98 20.9 69.7 31 3.4 38.2
00:45 1017 30.03 846 24.98 20.7 69.3 31 3.4 38.1
00:50 1017 30.03 846 24.98 20.5 68.9 32 3.4 38.2
00:55 1017 30.03 846 24.98 20.3 68.5 32 3.4 38.1
01:00 1017 30.03 846 24.98 20.1 68.3 33 3.3 38
01:05 1017 30.03 846 24.98 20 68 33 3.4 38.1
01:10 1017 30.03 846 24.98 20.1 68.2 32 3.2 37.7
01:15 1017 30.03 846 24.98 20.3 68.5 32 3.4 38.2
01:20 1017 30.03 846 24.98 20.3 68.6 33 3.6 38.5
01:25 1017 30.03 846 24.98 20.4 68.7 33 3.8 38.8
01:30 1017 30.03 846 24.98 20.4 68.7 33 3.9 39.1
01:35 1017 30.03 846 24.98 20.3 68.5 34 4.1 39.4
01:40 1017 30.03 846 24.98 20.1 68.2 34 4 39.2
01:45 1017 30.03 846 24.98 20.2 68.4 34 4 39.2
01:50 1017 30.03 846 24.98 20.1 68.1 34 4 39.3
01:55 1017 30.03 846 24.98 20 67.9 35 4.2 39.6
02:00 1017 30.03 846 24.98 19.9 67.7 35 4.1 39.3
02:05 1017 30.03 846 24.98 19.9 67.8 35 4.1 39.4
02:10 1017 30.03 846 24.98 19.9 67.8 35 4.2 39.5
02:15 1017 30.03 846 24.98 19.8 67.7 35 4.2 39.6
02:20 1017 30.03 846 24.98 19.8 67.6 35 4.1 39.5
02:25 1017 30.03 846 24.98 19.7 67.5 35 4.2 39.6
02:30 1017 30.03 846 24.98 19.6 67.3 35 4.1 39.3
02:35 1017 30.03 846 24.98 19.7 67.5 35 4.1 39.5
02:40 1017 30.03 846 24.98 19.6 67.2 36 4.1 39.4
02:45 1017 30.03 846 24.98 19.6 67.2 36 4.1 39.4
02:50 1017 30.03 846 24.98 19.6 67.3 35 3.9 39
02:55 1017 30.03 846 24.98 19.7 67.5 35 4 39.2
03:00 1017 30.03 846 24.98 19.7 67.4 35 4 39.2
03:05 1017 30.03 846 24.98 19.6 67.3 35 3.9 39
03:10 1017 30.03 846 24.98 19.6 67.3 35 3.9 39
03:15 1016 30 846 24.98 19.8 67.6 35 3.9 38.9
03:20 1016 30 846 24.98 19.6 67.3 35 4 39.2
03:25 1016 30 846 24.98 19.4 67 35 3.9 38.9
03:30 1016 30 846 24.98 19.4 67 35 3.8 38.9
03:35 1016 30 846 24.98 19.4 66.9 35 3.8 38.9
03:40 1016 30 846 24.98 19.5 67 35 3.8 38.8
03:45 1016 30 846 24.98 19.4 67 35 3.9 39
03:50 1016 30 845 24.95 19.5 67 36 4 39.2
03:55 1016 30 845 24.95 19.5 67 35 3.9 39
04:00 1016 30 845 24.95 19.4 67 36 4 39.2
04:05 1016 30 845 24.95 19.5 67 36 4 39.1
04:10 1016 30 845 24.95 19.4 66.9 36 4.2 39.5
04:15 1016 30 845 24.95 19.3 66.8 36 4.2 39.6
04:20 1016 30 845 24.95 19.3 66.8 37 4.3 39.8
04:25 1016 30 845 24.95 19.2 66.5 37 4.3 39.7
04:30 1016 30 845 24.95 19.2 66.5 37 4.4 39.9
04:35 1016 30 845 24.95 19.1 66.3 38 4.5 40
04:40 1016 30 845 24.95 18.9 66.1 38 4.4 39.9
04:45 1016 30 845 24.95 18.8 65.9 38 4.4 40
04:50 1016 30 845 24.95 18.8 65.8 38 4.4 40
04:55 1016 30 845 24.95 18.7 65.7 38 4.2 39.5
05:00 1016 30 845 24.95 18.7 65.7 38 4.4 40
05:05 1016 30 845 24.95 18.6 65.4 39 4.5 40
05:10 1016 30 845 24.95 18.4 65.2 39 4.5 40.1
05:15 1016 30 845 24.95 18.2 64.8 40 4.6 40.3
05:20 1016 30 845 24.95 18.1 64.5 41 4.6 40.3
05:25 1016 30 845 24.95 18 64.4 41 4.5 40.2
05:30 1016 30 845 24.95 18 64.4 41 4.5 40.2
05:35 1016 30 845 24.95 18 64.3 40 4.5 40
05:40 1016 30 845 24.95 18.1 64.6 40 4.3 39.8
05:45 1016 30 845 24.95 18.1 64.6 40 4.4 39.9
05:50 1016 30 845 24.95 18.1 64.6 40 4.4 39.9
05:55 1016 30 845 24.95 18.1 64.6 40 4.4 39.9
06:00 1016 30 845 24.95 17.9 64.2 41 4.5 40.2
06:05 1016 30 845 24.95 17.6 63.7 42 4.6 40.2
06:10 1016 30 845 24.95 17.2 63 43 4.6 40.3
06:15 1016 30 845 24.95 16.9 62.4 44 4.6 40.3
06:20 1016 30 845 24.95 16.7 62.1 44 4.5 40.1
06:25 1016 30 845 24.95 16.7 62.1 44 4.6 40.2
06:30 1016 30 845 24.95 16.7 62 43 4.3 39.8
06:35 1016 30 845 24.95 16.7 62 44 4.4 40
06:40 1016 30 845 24.95 16.7 62 43 4.1 39.3
06:45 1016 30 845 24.95 16.8 62.3 43 4.4 39.9
06:50 1016 30 846 24.98 16.9 62.3 44 4.8 40.6
06:55 1016 30 846 24.98 16.9 62.4 43 4.5 40.1
07:00 1016 30 846 24.98 17.1 62.8 42 4.4 39.8
07:05 1017 30.03 846 24.98 17.5 63.4 41 4.2 39.6
07:10 1017 30.03 846 24.98 16.9 62.4 44 4.8 40.7
07:15 1017 30.03 846 24.98 16.5 61.7 45 4.8 40.6
07:20 1017 30.03 846 24.98 16.4 61.5 46 4.8 40.6
07:25 1017 30.03 846 24.98 16.6 61.8 46 5.1 41.2
07:30 1017 30.03 846 24.98 16.4 61.5 47 5.2 41.4
07:35 1017 30.03 846 24.98 16 60.8 49 5.3 41.6
07:40 1018 30.06 847 25.01 16.3 61.3 48 5.4 41.6
07:45 1018 30.06 847 25.01 16.5 61.7 47 5.4 41.7
07:50 1018 30.06 847 25.01 16.6 61.8 48 5.5 41.9
07:55 1018 30.06 847 25.01 16.8 62.2 47 5.6 42
08:00 1018 30.06 847 25.01 16.7 62 49 6 42.8
08:05 1018 30.06 847 25.01 16.3 61.3 49 5.6 42.1
08:10 1018 30.06 847 25.01 16.4 61.4 49 5.7 42.3
08:15 1018 30.06 847 25.01 16 60.8 49 5.5 41.9
08:20 1018 30.06 847 25.01 15.8 60.4 51 5.8 42.4
08:25 1018 30.06 847 25.01 15.8 60.4 50 5.5 41.9
08:30 1018 30.06 847 25.01 16.6 61.8 48 5.6 42
08:35 1018 30.06 847 25.01 16.8 62.3 50 6.5 43.7
08:40 1018 30.06 847 25.01 16.7 62 48 5.7 42.2
08:45 1018 30.06 847 25.01 16.8 62.2 49 6 42.8
08:50 1018 30.06 847 25.01 16.5 61.8 49 5.7 42.3
08:55 1018 30.06 847 25.01 16.3 61.4 52 6.6 43.8
09:00 1018 30.06 847 25.01 17.2 63 46 5.5 41.8
09:05 1018 30.06 848 25.04 17.3 63.1 48 6.4 43.4
09:10 1019 30.09 848 25.04 17.1 62.7 48 6.1 43
09:15 1018 30.06 847 25.01 17.5 63.5 47 6.2 43.2
09:20 1017 30.03 846 24.98 17.8 64 48 6.7 44
09:25 1017 30.03 847 25.01 18 64.5 46 6.5 43.7
09:30 1017 30.03 847 25.01 18.6 65.4 44 6.3 43.3
09:35 1018 30.06 847 25.01 19.2 66.6 42 6 42.7
09:40 1018 30.06 847 25.01 19.7 67.4 42 6.6 43.9
09:45 1018 30.06 847 25.01 20.1 68.1 41 6.5 43.7
09:50 1018 30.06 847 25.01 20.1 68.3 42 6.8 44.3
09:55 1018 30.06 847 25.01 19.9 67.7 40 6 42.9
10:00 1018 30.06 847 25.01 20 67.9 38 5.5 41.9
10:05 1018 30.06 847 25.01 20.8 69.4 35 5 41
10:10 1018 30.06 847 25.01 21.7 71.1 33 5 41
10:15 1018 30.06 847 25.01 22.5 72.5 32 5.2 41.4
10:20 1018 30.06 847 25.01 22.4 72.4 33 5.4 41.7
10:25 1018 30.06 847 25.01 22.8 73.1 32 5.6 42.1
10:30 1018 30.06 847 25.01 22.2 71.9 33 5.5 41.9
10:35 1018 30.06 847 25.01 21.2 70.1 34 4.8 40.7
10:40 1018 30.06 847 25.01 21.8 71.3 32 4.6 40.3
10:45 1018 30.06 847 25.01 21.8 71.2 33 5.1 41.2
10:50 1018 30.06 847 25.01 22.9 73.2 32 5.3 41.6
10:55 1018 30.06 847 25.01 22.8 73 33 5.8 42.4
11:00 1017 30.03 847 25.01 22.5 72.6 31 4.8 40.6
11:05 1017 30.03 846 24.98 22.5 72.5 31 4.8 40.7
11:10 1017 30.03 846 24.98 23.4 74.1 29 4.6 40.2
11:15 1017 30.03 846 24.98 24.3 75.7 28 4.8 40.7
11:20 1017 30.03 846 24.98 24.3 75.7 28 5.1 41.2
11:25 1017 30.03 846 24.98 24.4 76 29 5.4 41.8
11:30 1017 30.03 846 24.98 23.9 74.9 30 5.4 41.7
11:35 1017 30.03 846 24.98 23.4 74.1 31 5.7 42.3
11:40 1017 30.03 846 24.98 23.5 74.4 30 5.1 41.3
11:45 1017 30.03 846 24.98 24.6 76.3 31 6.4 43.5
11:50 1017 30.03 846 24.98 24.3 75.7 31 6.1 43
11:55 1017 30.03 846 24.98 24.9 76.8 29 6 42.9
12:00 1016 30 846 24.98 25.1 77.2 27 4.9 40.8
12:05 1016 30 846 24.98 24.7 76.5 27 4.9 40.9
12:10 1016 30 846 24.98 24.7 76.5 26 4.4 39.9
12:15 1016 30 846 24.98 24.7 76.4 26 4 39.2
12:20 1016 30 845 24.95 25 76.9 26 4.2 39.6
12:25 1016 30 845 24.95 25.5 78 25 4.4 39.9
12:30 1016 30 845 24.95 26.2 79.2 24 4.2 39.5
12:35 1016 30 845 24.95 25 77 27 4.9 40.9
12:40 1016 30 845 24.95 26.1 79 23 3.9 39.1
12:45 1016 30 845 24.95 26.4 79.6 24 4.3 39.7
12:50 1016 30 845 24.95 25.3 77.6 24 3.6 38.5
12:55 1016 30 845 24.95 25 77 24 3.3 38
13:00 1016 30 845 24.95 25.2 77.3 23 2.8 37
13:05 1016 30 845 24.95 26.8 80.2 20 2.5 36.6
13:10 1016 30 845 24.95 27.5 81.4 20 2.8 37.1
13:15 1016 30 845 24.95 27.8 82 19 2.6 36.7
13:20 1016 30 845 24.95 28.1 82.6 19 2.7 36.9
13:25 1015 29.97 845 24.95 27.1 80.9 20 2.4 36.2
13:30 1015 29.97 845 24.95 27.6 81.6 19 2.4 36.3
13:35 1015 29.97 844 24.92 27.6 81.7 19 2.4 36.4
13:40 1015 29.97 844 24.92 27.9 82.1 19 2.1 35.8
13:45 1015 29.97 844 24.92 27.7 81.8 19 2.1 35.8
13:50 1015 29.97 844 24.92 26.9 80.4 22 3.7 38.6
13:55 1015 29.97 844 24.92 27.1 80.7 24 5.4 41.7
14:00 1015 29.97 844 24.92 27 80.5 22 3.8 38.8
14:05 1015 29.97 844 24.92 27.2 80.9 21 3.4 38.2
14:10 1015 29.97 844 24.92 27.5 81.5 21 3.6 38.4
14:15 1015 29.97 844 24.92 26.8 80.3 22 3.6 38.5
14:20 1015 29.97 844 24.92 26.8 80.2 22 3.8 38.8
14:25 1015 29.97 844 24.92 26.6 79.9 22 3.3 38
14:30 1015 29.97 844 24.92 26.5 79.7 22 3.1 37.6
14:35 1014 29.94 844 24.92 26.1 78.9 22 3.2 37.7
14:40 1015 29.97 844 24.92 26 78.7 21 2.5 36.4
14:45 1015 29.97 844 24.92 26.1 78.9 23 3.4 38.1
14:50 1016 30 845 24.95 26.2 79.1 22 3.2 37.7
14:55 1016 30 845 24.95 24.5 76.1 35 8.4 47
15:00 1017 30.03 846 24.98 19.9 67.8 55 10.8 51.4
15:05 1017 30.03 846 24.98 18.2 64.8 56 9.4 48.9
15:10 1016 30 845 24.95 18.6 65.4 57 10 50.1
15:15 1016 30 845 24.95 19.1 66.4 53 9.3 48.8
15:20 1016 30 846 24.98 19.7 67.5 50 9.3 48.7
15:25 1016 30 846 24.98 20.2 68.4 45 8.1 46.7
15:30 1016 30 845 24.95 20.4 68.6 47 8.9 47.9
15:35 1016 30 845 24.95 20 67.9 53 10.3 50.5
15:40 1016 30 845 24.95 19.7 67.4 55 10.4 50.7
15:45 1016 30 845 24.95 19.5 67 53 9.8 49.7
15:50 1016 30 845 24.95 19.7 67.5 46 7.8 46
15:55 1016 30 845 24.95 20.9 69.7 39 6.5 43.7
16:00 1016 30 845 24.95 21.5 70.7 36 6.1 42.9
16:05 1016 30 845 24.95 22.1 71.8 38 7.2 44.9
16:10 1016 30 845 24.95 22.1 71.8 36 6.7 44
16:15 1015 29.97 845 24.95 21.8 71.2 37 6.5 43.7
16:20 1015 29.97 845 24.95 21.7 71.1 35 5.6 42
16:25 1015 29.97 844 24.92 21.8 71.2 35 5.8 42.5
16:30 1015 29.97 845 24.95 21.8 71.3 37 6.5 43.7
16:35 1015 29.97 845 24.95 21.7 71.1 36 6.4 43.5
16:40 1015 29.97 844 24.92 21.6 70.9 40 7.5 45.4
16:45 1015 29.97 844 24.92 21.5 70.7 38 6.8 44.2
16:50 1015 29.97 844 24.92 21.7 71.1 40 7.6 45.6
16:55 1015 29.97 844 24.92 21.6 70.9 40 7.6 45.7
17:00 1015 29.97 845 24.95 21.7 71 45 9.4 48.8
17:05 1016 30 845 24.95 21.8 71.3 41 8.2 46.8
17:10 1016 30 845 24.95 22.1 71.8 36 6.7 44
17:15 1016 30 845 24.95 22.3 72.1 37 7 44.5
17:20 1016 30 845 24.95 22.4 72.3 38 7.5 45.5
17:25 1016 30 845 24.95 22.9 73.1 34 6.6 43.8
17:30 1016 30 846 24.98 22.7 72.8 41 9 48.2
17:35 1016 30 846 24.98 22.2 71.9 40 8 46.5
17:40 1016 30 846 24.98 22.4 72.3 39 7.8 46
17:45 1017 30.03 846 24.98 22.3 72.1 35 6.3 43.4
17:50 1017 30.03 846 24.98 22.5 72.5 34 6.1 42.9
17:55 1016 30 846 24.98 23.4 74 29 4.5 40.2
18:00 1016 30 846 24.98 24.1 75.3 29 5.2 41.4
18:05 1016 30 846 24.98 24.1 75.4 29 5.4 41.7
18:10 1016 30 846 24.98 24.1 75.3 29 5.1 41.2
18:15 1016 30 846 24.98 23.7 74.7 29 4.7 40.5
18:20 1016 30 845 24.95 23.2 73.8 30 4.7 40.5
18:25 1016 30 845 24.95 22.9 73.3 30 4.8 40.6
18:30 1016 30 845 24.95 22.9 73.2 32 5.6 42
18:35 1016 30 845 24.95 23 73.4 31 5.4 41.7
18:40 1016 30 845 24.95 23.2 73.7 31 5.4 41.7
18:45 1016 30 845 24.95 23 73.3 32 5.4 41.8
18:50 1016 30 845 24.95 22.9 73.3 33 5.8 42.5
18:55 1016 30 845 24.95 23.1 73.6 31 5.5 41.9
19:00 1016 30 845 24.95 23 73.4 32 5.8 42.4
19:05 1016 30 845 24.95 22.8 73.1 33 5.8 42.4
19:10 1016 30 845 24.95 22.4 72.4 33 5.6 42
19:15 1016 30 845 24.95 22.1 71.7 34 5.6 42
19:20 1016 30 845 24.95 21.7 71.1 34 5.6 42.1
19:25 1016 30 845 24.95 21.5 70.7 35 5.5 41.9
19:30 1016 30 845 24.95 21.3 70.4 34 5.1 41.3
19:35 1016 30 845 24.95 21.2 70.1 34 4.8 40.6
19:40 1016 30 845 24.95 21 69.8 35 5.1 41.2
19:45 1016 30 845 24.95 21 69.8 35 5.2 41.3
19:50 1016 30 846 24.98 21 69.7 35 5.2 41.3
19:55 1017 30.03 846 24.98 21 69.8 36 5.4 41.6
20:00 1017 30.03 846 24.98 21 69.8 35 5.3 41.6
20:05 1017 30.03 846 24.98 20.8 69.5 37 5.8 42.4
20:10 1017 30.03 846 24.98 20.7 69.2 38 6 42.8
20:15 1017 30.03 846 24.98 20.5 68.9 38 6 42.8
20:20 1017 30.03 846 24.98 20.4 68.7 38 5.8 42.4
20:25 1017 30.03 846 24.98 20.1 68.2 39 6 42.7
20:30 1017 30.03 847 25.01 19.9 67.7 40 6 42.8
20:35 1017 30.03 847 25.01 19.7 67.5 40 6 42.8
20:40 1018 30.06 847 25.01 19.6 67.3 41 6.2 43.2
20:45 1018 30.06 847 25.01 19.5 67.1 41 6.1 43
20:50 1018 30.06 847 25.01 19.3 66.8 42 6.3 43.4
20:55 1018 30.06 847 25.01 19 66.2 43 6.4 43.6
21:00 1018 30.06 847 25.01 18.8 65.9 44 6.5 43.6
21:05 1018 30.06 847 25.01 18.7 65.6 44 6.4 43.5
21:10 1018 30.06 847 25.01 18.7 65.6 45 6.7 44
21:15 1018 30.06 848 25.04 18.6 65.4 45 6.6 43.9
21:20 1019 30.09 848 25.04 18.5 65.3 47 7.2 45
21:25 1019 30.09 848 25.04 17.5 63.5 52 7.5 45.6
21:30 1019 30.09 848 25.04 16.9 62.4 53 7.5 45.4
21:35 1019 30.09 848 25.04 16.9 62.4 52 7.1 44.8
21:40 1019 30.09 848 25.04 17.1 62.7 52 7.3 45.1
21:45 1019 30.09 848 25.04 17 62.5 53 7.3 45.2
21:50 1019 30.09 848 25.04 16.8 62.3 53 7.2 45
21:55 1019 30.09 848 25.04 16.7 62 52 7 44.5
22:00 1019 30.09 848 25.04 16.6 61.8 53 7.1 44.8
22:05 1019 30.09 848 25.04 16.4 61.5 54 7.2 45
22:10 1019 30.09 848 25.04 16.3 61.4 54 7.2 44.9
22:15 1019 30.09 848 25.04 16.1 61 57 7.6 45.8
22:20 1019 30.09 848 25.04 16 60.8 56 7.4 45.3
22:25 1019 30.09 848 25.04 15.8 60.4 57 7.5 45.4
22:30 1019 30.09 848 25.04 15.7 60.3 58 7.5 45.6
22:35 1019 30.09 848 25.04 15.6 60 59 7.7 45.9
22:40 1019 30.09 848 25.04 15.2 59.4 61 7.9 46.3
22:45 1019 30.09 848 25.04 15.3 59.5 59 7.4 45.3
22:50 1019 30.09 848 25.04 15.4 59.7 57 6.9 44.4
22:55 1019 30.09 848 25.04 15.5 60 57 7.1 44.8
23:00 1019 30.09 848 25.04 15.5 59.8 58 7.3 45.2
23:05 1019 30.09 849 25.07 14.8 58.7 60 7.3 45.2
23:10 1019 30.09 849 25.07 14.9 58.8 62 7.7 45.9
23:15 1020 30.12 849 25.07 15.2 59.3 56 6.4 43.6
23:20 1020 30.12 849 25.07 15.7 60.3 53 6.4 43.5
23:25 1020 30.12 849 25.07 15.8 60.4 54 6.4 43.6
23:30 1020 30.12 849 25.07 15.8 60.4 54 6.5 43.7
23:35 1020 30.12 849 25.07 15.7 60.2 54 6.5 43.7
23:40 1020 30.12 849 25.07 15.6 60.2 57 7.2 45
23:45 1020 30.12 849 25.07 15.4 59.7 59 7.5 45.4
23:50 1020 30.12 849 25.07 15.2 59.3 60 7.5 45.6
23:55 1020 30.12 849 25.07 15 59.1 61 7.6 45.7
24:00 1020 30.12 849 25.07 14.9 58.7 61 7.6 45.6